Jacobson, Minnesota
Current Conditions -  °F | °C
As of 6:35 PM on Friday 21 Nov 2014 (Local Time) from KGPZ Reporting Station
Broken Clouds Broken Clouds  
Wind Chill: 13°   Ceiling: 12000
Heat Index: 27°   Visibility: 10mi
Dew Point: 19°   Wind: 18mph
Humidity: 74%   Direction: 190°S
Pressure: 29.75"   Gusts: 25mph
Location:  47°N, 93.27°W
Report Text: KGPZ 220035Z AUTO 19016G22KT 10SM BKN120 M03/M07 A2975 RMK AO1
Loading
Personal Weather Stations






























Interactive Weather Map New forecast layout! Learn more

10-Day Weather Forecast

Advertisements
Track Severe Weather on mobile